Time;durP1;ratioP1;P1;durP2;ratioP2;P2;SDS_P1;SDS_P2;PMS_P1;PMS_P2;Temp;Humidity;BMP_temperature;BMP_pressure;BME280_temperature;BME280_humidity;BME280_pressure;Samples;Min_cycle;Max_cycle;Signal;HPM_P1;HPM_P2
2023/03/17 00:02:12;;;;;;;;;;;;;;;20.20;42.26;101260.09;4960387;28;4187;-65
2023/03/17 00:04:38;;;;;;;;;;;;;;;20.18;42.30;101251.34;4954496;28;5451;-65
2023/03/17 00:07:05;;;;;;;;;;;;;;;20.18;42.25;101252.09;4956495;28;4545;-65
2023/03/17 00:09:32;;;;;;;;;;;;;;;20.18;42.31;101255.00;4954590;28;4563;-65
2023/03/17 00:11:58;;;;;;;;;;;;;;;20.18;42.31;101245.59;4956935;28;5244;-65
2023/03/17 00:14:25;;;;;;;;;;;;;;;20.18;42.32;101251.34;4950614;28;5500;-65
2023/03/17 00:16:52;;;;;;;;;;;;;;;20.17;42.38;101238.38;4954953;28;4017;-64
2023/03/17 00:19:29;;;;;;;;;;;;;;;20.18;42.28;101242.72;4953517;28;5390;-65
2023/03/17 00:21:56;;;;;;;;;;;;;;;20.19;42.23;101238.47;4954569;28;5249;-65
2023/03/17 00:24:22;;;;;;;;;;;;;;;20.20;42.22;101242.84;4955906;28;3983;-64
2023/03/17 00:26:49;;;;;;;;;;;;;;;20.21;42.34;101238.59;4956710;28;4054;-65
2023/03/17 00:29:15;;;;;;;;;;;;;;;20.21;42.54;101229.97;4955635;28;4211;-64
2023/03/17 00:31:43;;;;;;;;;;;;;;;20.21;42.63;101230.69;4955392;28;5220;-65
2023/03/17 00:34:11;;;;;;;;;;;;;;;20.19;42.60;101221.97;4944898;28;5105;-65
2023/03/17 00:36:38;;;;;;;;;;;;;;;20.19;42.48;101207.59;4944306;28;4179;-65
2023/03/17 00:39:05;;;;;;;;;;;;;;;20.20;42.45;101214.06;4937403;28;5304;-64
2023/03/17 00:41:31;;;;;;;;;;;;;;;20.19;42.46;101212.59;4958842;28;4027;-65
2023/03/17 00:43:58;;;;;;;;;;;;;;;20.18;42.33;101205.34;4951524;28;4351;-65
2023/03/17 00:46:34;;;;;;;;;;;;;;;20.17;42.45;101192.34;4955170;28;4256;-65
2023/03/17 00:49:01;;;;;;;;;;;;;;;20.17;42.44;101180.84;4956983;28;4084;-65
2023/03/17 00:51:28;;;;;;;;;;;;;;;20.16;42.35;101177.25;4947559;28;4105;-65
2023/03/17 00:53:54;;;;;;;;;;;;;;;20.15;42.40;101167.13;4955350;28;4143;-64
2023/03/17 00:56:20;;;;;;;;;;;;;;;20.15;42.33;101163.50;4953539;28;4235;-65
2023/03/17 00:58:47;;;;;;;;;;;;;;;20.14;42.38;101170.66;4957193;28;4564;-65
2023/03/17 01:01:14;;;;;;;;;;;;;;;20.13;42.43;101169.88;4959674;28;4700;-65
2023/03/17 01:03:41;;;;;;;;;;;;;;;20.13;42.45;101174.88;4958153;28;4010;-65
2023/03/17 01:06:09;;;;;;;;;;;;;;;20.13;42.48;101169.13;4956192;28;4226;-64
2023/03/17 01:08:37;;;;;;;;;;;;;;;20.13;42.27;101172.75;4949708;28;4100;-63
2023/03/17 01:11:06;;;;;;;;;;;;;;;20.12;42.38;101161.91;4955730;28;4154;-63
2023/03/17 01:13:33;;;;;;;;;;;;;;;20.11;42.25;101169.78;4962350;28;4228;-63
2023/03/17 01:15:59;;;;;;;;;;;;;;;20.11;42.16;101177.66;4954578;28;4473;-64
2023/03/17 01:18:26;;;;;;;;;;;;;;;20.09;42.19;101169.69;4956720;28;4165;-63
2023/03/17 01:20:52;;;;;;;;;;;;;;;20.09;42.15;101173.31;4956125;28;4290;-63
2023/03/17 01:23:19;;;;;;;;;;;;;;;20.08;42.21;101168.91;4957408;28;4055;-66
2023/03/17 01:25:45;;;;;;;;;;;;;;;20.09;42.19;101152.44;4945174;28;5253;-65
2023/03/17 01:28:12;;;;;;;;;;;;;;;20.08;42.39;101148.06;4956411;28;4216;-65
2023/03/17 01:30:38;;;;;;;;;;;;;;;20.08;42.24;101148.78;4959256;28;4187;-62
2023/03/17 01:33:07;;;;;;;;;;;;;;;20.09;42.31;101144.56;4959313;28;4260;-65
2023/03/17 01:35:34;;;;;;;;;;;;;;;20.11;42.11;101125.91;4959343;28;4149;-65
2023/03/17 01:38:00;;;;;;;;;;;;;;;20.12;42.32;101121.66;4958866;28;4489;-65
2023/03/17 01:40:27;;;;;;;;;;;;;;;20.13;42.60;101120.25;4958266;28;5141;-65
2023/03/17 01:43:03;;;;;;;;;;;;;;;20.13;42.48;101123.13;4955739;28;5245;-66
2023/03/17 01:45:48;;;;;;;;;;;;;;;20.13;42.40;101117.38;4958863;28;4168;-65
2023/03/17 01:48:17;;;;;;;;;;;;;;;20.13;42.34;101118.13;4941686;28;4120;-65
2023/03/17 01:50:43;;;;;;;;;;;;;;;20.13;42.44;101117.38;4941432;28;4166;-65
2023/03/17 01:53:10;;;;;;;;;;;;;;;20.12;42.40;101127.41;4923867;28;4265;-65
2023/03/17 01:55:36;;;;;;;;;;;;;;;20.13;42.40;101126.00;4956386;28;5088;-65
2023/03/17 01:58:03;;;;;;;;;;;;;;;20.11;42.52;101120.16;4958479;28;5420;-65
2023/03/17 02:00:31;;;;;;;;;;;;;;;20.09;42.46;101107.19;4947836;28;5434;-65
2023/03/17 02:02:57;;;;;;;;;;;;;;;20.09;42.49;101112.19;4943004;28;4298;-65
2023/03/17 02:05:25;;;;;;;;;;;;;;;20.09;42.49;101110.06;4955306;28;5246;-65
2023/03/17 02:07:52;;;;;;;;;;;;;;;20.08;42.37;101111.41;4947351;28;5183;-65
2023/03/17 02:10:23;;;;;;;;;;;;;;;20.06;42.42;101102.69;4955305;28;4179;-65
2023/03/17 02:12:50;;;;;;;;;;;;;;;20.06;42.50;101108.44;4955121;28;6500;-65
2023/03/17 02:15:17;;;;;;;;;;;;;;;20.06;42.30;101108.44;4942656;28;4160;-65
2023/03/17 02:17:43;;;;;;;;;;;;;;;20.05;42.39;101103.34;4957847;28;4360;-64
2023/03/17 02:20:16;;;;;;;;;;;;;;;20.05;42.51;101106.97;4957158;28;5476;-64
2023/03/17 02:22:42;;;;;;;;;;;;;;;20.04;42.32;101105.50;4956738;28;4218;-64
2023/03/17 02:25:08;;;;;;;;;;;;;;;20.03;42.42;101097.50;4957467;28;4295;-65
2023/03/17 02:27:36;;;;;;;;;;;;;;;20.02;42.37;101093.88;4936350;28;4178;-65
2023/03/17 02:30:03;;;;;;;;;;;;;;;20.02;42.26;101088.13;4941292;28;4260;-64
2023/03/17 02:32:29;;;;;;;;;;;;;;;20.01;42.35;101083.75;4957110;28;4161;-65
2023/03/17 02:34:56;;;;;;;;;;;;;;;20.00;42.33;101076.53;4941491;28;4804;-65
2023/03/17 02:37:22;;;;;;;;;;;;;;;20.00;42.30;101082.28;4955152;28;4225;-65
2023/03/17 02:39:50;;;;;;;;;;;;;;;20.00;42.28;101088.03;4954731;28;5459;-65
2023/03/17 02:42:16;;;;;;;;;;;;;;;19.99;42.25;101080.78;4956601;28;5256;-65
2023/03/17 02:44:43;;;;;;;;;;;;;;;19.98;42.31;101085.03;4953132;28;4213;-65
2023/03/17 02:47:10;;;;;;;;;;;;;;;19.97;42.30;101077.78;4953445;28;4209;-65
2023/03/17 02:49:37;;;;;;;;;;;;;;;19.97;42.23;101077.06;4955409;28;4171;-65
2023/03/17 02:52:03;;;;;;;;;;;;;;;19.96;42.06;101079.19;4929142;29;4093;-65
2023/03/17 02:54:30;;;;;;;;;;;;;;;19.96;42.09;101082.06;4934785;29;4196;-64
2023/03/17 02:56:56;;;;;;;;;;;;;;;19.96;42.05;101075.56;4933363;29;4207;-65
2023/03/17 02:59:22;;;;;;;;;;;;;;;19.95;42.22;101080.59;4934506;29;4458;-65
2023/03/17 03:01:49;;;;;;;;;;;;;;;19.94;42.18;101079.06;4934379;29;5222;-65
2023/03/17 03:04:17;;;;;;;;;;;;;;;19.94;42.16;101075.47;4938216;29;4097;-65
2023/03/17 03:06:44;;;;;;;;;;;;;;;19.94;42.12;101081.94;4934076;29;4190;-65
2023/03/17 03:09:11;;;;;;;;;;;;;;;19.94;41.96;101087.69;4930925;29;4186;-66
2023/03/17 03:11:37;;;;;;;;;;;;;;;19.94;41.99;101096.31;4931691;29;4793;-65
2023/03/17 03:14:04;;;;;;;;;;;;;;;19.95;42.22;101103.56;4934799;29;4407;-65
2023/03/17 03:16:30;;;;;;;;;;;;;;;19.95;42.08;101106.44;4938405;29;4224;-64
2023/03/17 03:18:56;;;;;;;;;;;;;;;19.97;42.36;101106.53;4933539;29;4163;-65
2023/03/17 03:21:23;;;;;;;;;;;;;;;19.98;42.18;101101.56;4936265;28;4027;-64
2023/03/17 03:23:49;;;;;;;;;;;;;;;19.98;42.29;101099.41;4928868;29;4196;-65
2023/03/17 03:26:16;;;;;;;;;;;;;;;19.99;42.48;101092.28;4933072;29;4196;-64
2023/03/17 03:28:42;;;;;;;;;;;;;;;20.00;42.60;101090.91;4935022;29;4075;-65
2023/03/17 03:31:09;;;;;;;;;;;;;;;20.01;42.59;101088.75;4935731;29;4510;-65
2023/03/17 03:33:36;;;;;;;;;;;;;;;20.00;42.47;101084.41;4938545;29;4195;-65
2023/03/17 03:36:02;;;;;;;;;;;;;;;19.99;42.38;101095.16;4935656;29;5276;-65
2023/03/17 03:38:28;;;;;;;;;;;;;;;20.00;42.64;101099.53;4933002;29;4131;-65
2023/03/17 03:40:55;;;;;;;;;;;;;;;20.01;42.63;101101.00;4934574;28;5619;-65
2023/03/17 03:43:21;;;;;;;;;;;;;;;20.02;42.95;101099.63;4936490;29;4197;-65
2023/03/17 03:45:49;;;;;;;;;;;;;;;20.05;43.00;101098.34;4937229;29;5316;-65
2023/03/17 03:48:15;;;;;;;;;;;;;;;20.04;42.92;101094.00;4934292;29;4229;-64
2023/03/17 03:50:42;;;;;;;;;;;;;;;20.04;42.86;101091.13;4940928;28;5694;-64
2023/03/17 03:53:08;;;;;;;;;;;;;;;20.06;42.67;101096.94;4957902;28;4231;-64
2023/03/17 03:55:35;;;;;;;;;;;;;;;20.06;42.75;101091.19;4956414;28;4155;-65
2023/03/17 03:58:01;;;;;;;;;;;;;;;20.08;42.76;101090.56;4958346;28;4157;-64
2023/03/17 04:00:28;;;;;;;;;;;;;;;20.08;42.83;101087.69;4957844;28;4336;-65
2023/03/17 04:02:54;;;;;;;;;;;;;;;20.08;42.80;101076.19;4959573;28;4121;-65
2023/03/17 04:05:21;;;;;;;;;;;;;;;20.07;42.60;101072.56;4957910;28;4619;-65
2023/03/17 04:07:47;;;;;;;;;;;;;;;20.07;42.87;101074.72;4958797;28;4533;-65
2023/03/17 04:10:14;;;;;;;;;;;;;;;20.07;42.75;101081.19;4955842;28;5359;-65
2023/03/17 04:12:40;;;;;;;;;;;;;;;20.07;42.88;101069.69;4959595;28;4207;-65
2023/03/17 04:15:07;;;;;;;;;;;;;;;20.06;43.02;101062.44;4957815;28;4181;-65
2023/03/17 04:17:34;;;;;;;;;;;;;;;20.06;43.04;101059.56;4960417;28;4010;-65
2023/03/17 04:20:00;;;;;;;;;;;;;;;20.06;42.79;101059.56;4956238;28;4133;-64
2023/03/17 04:22:26;;;;;;;;;;;;;;;20.07;42.75;101061.06;4957451;28;4003;-65
2023/03/17 04:24:53;;;;;;;;;;;;;;;20.09;42.99;101066.19;4954662;28;4064;-67
2023/03/17 04:27:19;;;;;;;;;;;;;;;20.15;42.82;101051.38;4954296;28;4229;-67
2023/03/17 04:29:46;;;;;;;;;;;;;;;20.13;43.06;101049.13;4957723;28;5203;-66
2023/03/17 04:32:12;;;;;;;;;;;;;;;20.07;43.14;101051.72;4950688;28;4220;-66
2023/03/17 04:34:38;;;;;;;;;;;;;;;20.06;42.89;101053.09;4954351;28;4995;-65
2023/03/17 04:37:05;;;;;;;;;;;;;;;20.07;42.82;101055.31;4959428;28;4064;-66
2023/03/17 04:39:31;;;;;;;;;;;;;;;20.08;42.79;101048.19;4955676;28;4389;-65
2023/03/17 04:41:57;;;;;;;;;;;;;;;20.09;43.15;101048.94;4958358;28;4132;-65
2023/03/17 04:44:24;;;;;;;;;;;;;;;20.08;42.98;101053.94;4956928;28;4197;-65
2023/03/17 04:46:50;;;;;;;;;;;;;;;20.09;42.84;101055.44;4955366;28;4145;-64
2023/03/17 04:49:16;;;;;;;;;;;;;;;20.11;43.38;101042.53;4954508;28;4189;-64
2023/03/17 04:51:43;;;;;;;;;;;;;;;20.11;43.86;101034.66;4957329;28;4165;-63
2023/03/17 04:54:10;;;;;;;;;;;;;;;20.12;44.11;101035.41;4956365;28;4269;-64
2023/03/17 04:56:36;;;;;;;;;;;;;;;20.14;44.05;101038.38;4958953;28;4219;-64
2023/03/17 04:59:02;;;;;;;;;;;;;;;20.13;44.10;101031.88;4957233;28;5300;-64
2023/03/17 05:01:28;;;;;;;;;;;;;;;20.13;43.96;101031.13;4956610;28;4007;-65
2023/03/17 05:03:55;;;;;;;;;;;;;;;20.15;44.12;101042.75;4955200;28;5370;-64
2023/03/17 05:06:22;;;;;;;;;;;;;;;20.13;44.05;101031.13;4955000;28;4216;-64
2023/03/17 05:08:48;;;;;;;;;;;;;;;20.12;44.15;101036.16;4951555;28;4063;-64
2023/03/17 05:11:15;;;;;;;;;;;;;;;20.13;44.13;101054.13;4952354;28;4170;-64
2023/03/17 05:13:41;;;;;;;;;;;;;;;20.12;44.16;101039.03;4953690;28;4191;-65
2023/03/17 05:16:07;;;;;;;;;;;;;;;20.12;44.19;101030.41;4948984;28;4154;-66
2023/03/17 05:18:34;;;;;;;;;;;;;;;20.13;44.14;101026.13;4953987;28;4163;-66
2023/03/17 05:21:01;;;;;;;;;;;;;;;20.15;44.10;101045.63;4962438;28;4131;-66
2023/03/17 05:23:28;;;;;;;;;;;;;;;20.11;43.82;101043.28;4952210;28;4130;-66
2023/03/17 05:25:54;;;;;;;;;;;;;;;20.10;43.68;101033.16;4951653;28;4040;-66
2023/03/17 05:28:21;;;;;;;;;;;;;;;20.08;43.58;101030.94;4954839;28;4329;-67
2023/03/17 05:30:47;;;;;;;;;;;;;;;20.07;43.62;101022.97;4953368;28;4217;-65
2023/03/17 05:33:15;;;;;;;;;;;;;;;20.08;43.61;101030.19;4953680;28;4095;-70
2023/03/17 05:35:41;;;;;;;;;;;;;;;20.16;43.61;101041.34;4947207;28;4166;-66
2023/03/17 05:38:08;;;;;;;;;;;;;;;20.13;43.77;101036.88;4950954;28;4112;-73
2023/03/17 05:40:35;;;;;;;;;;;;;;;20.14;43.51;101027.63;4937939;28;4214;-71
2023/03/17 05:43:02;;;;;;;;;;;;;;;20.15;43.76;101034.13;4961182;28;4844;-72
2023/03/17 05:45:29;;;;;;;;;;;;;;;20.15;43.78;101031.25;4952787;28;4487;-73
2023/03/17 05:47:55;;;;;;;;;;;;;;;20.15;43.75;101039.88;4951695;28;4073;-74
2023/03/17 05:50:22;;;;;;;;;;;;;;;20.14;43.80;101024.03;4952685;28;4170;-74
2023/03/17 05:52:50;;;;;;;;;;;;;;;20.16;43.88;101035.59;4954072;28;4224;-73
2023/03/17 05:55:16;;;;;;;;;;;;;;;20.16;43.87;101029.84;4949554;28;4244;-73
2023/03/17 05:57:43;;;;;;;;;;;;;;;20.14;43.74;101030.50;4953699;28;5005;-75
2023/03/17 06:00:10;;;;;;;;;;;;;;;20.15;43.56;101034.84;4945627;28;4221;-73
2023/03/17 06:02:38;;;;;;;;;;;;;;;20.15;43.21;101029.09;4950449;28;4139;-74
2023/03/17 06:05:05;;;;;;;;;;;;;;;20.20;43.32;101030.06;4952824;28;4102;-67
2023/03/17 06:07:31;;;;;;;;;;;;;;;20.27;43.05;101017.47;4956654;28;4043;-69
2023/03/17 06:10:14;;;;;;;;;;;;;;;20.26;43.47;101005.22;4953164;28;6720;-67
2023/03/17 06:12:40;;;;;;;;;;;;;;;20.74;44.58;101010.38;4948537;28;4150;-73
2023/03/17 06:15:08;;;;;;;;;;;;;;;20.75;43.36;101012.59;4954290;28;5345;-76
2023/03/17 06:17:44;;;;;;;;;;;;;;;20.75;43.43;101018.34;4959037;28;4859;-77
2023/03/17 06:20:11;;;;;;;;;;;;;;;20.76;43.00;101016.97;4956937;28;4212;-77
2023/03/17 06:22:38;;;;;;;;;;;;;;;20.91;43.07;101006.84;4953874;28;4224;-78
2023/03/17 06:25:17;;;;;;;;;;;;;;;21.10;42.52;101006.31;4959695;28;5097;-72
2023/03/17 06:27:43;;;;;;;;;;;;;;;21.21;42.14;100992.38;4956406;28;4093;-74
2023/03/17 06:30:10;;;;;;;;;;;;;;;21.19;42.10;101009.56;4958447;28;5296;-76
2023/03/17 06:32:36;;;;;;;;;;;;;;;21.17;41.75;101009.47;4959706;28;4188;-74
2023/03/17 06:35:04;;;;;;;;;;;;;;;20.88;41.14;101008.91;4957183;28;3975;-70
2023/03/17 06:37:30;;;;;;;;;;;;;;;20.80;41.39;101014.28;4954544;28;4243;-75
2023/03/17 06:39:57;;;;;;;;;;;;;;;20.91;41.30;101006.84;4955431;28;4012;-74
2023/03/17 06:42:23;;;;;;;;;;;;;;;20.92;41.32;100996.84;4953165;28;4208;-71
2023/03/17 06:44:51;;;;;;;;;;;;;;;20.91;41.08;100984.59;4956037;28;4133;-70
2023/03/17 07:14:41;;;;;;;;;;;;;;;20.67;39.54;100989.22;4925585;28;5229;-68
2023/03/17 07:17:09;;;;;;;;;;;;;;;20.69;39.60;100997.94;4933236;28;5463;-70
2023/03/17 07:19:35;;;;;;;;;;;;;;;20.68;39.13;100991.44;4934867;28;4028;-70
2023/03/17 07:22:02;;;;;;;;;;;;;;;20.70;39.59;100976.38;4948165;28;4164;-71
2023/03/17 07:24:28;;;;;;;;;;;;;;;20.75;39.62;100962.94;4958450;28;4153;-70
2023/03/17 07:26:54;;;;;;;;;;;;;;;20.76;39.37;100959.41;4957793;28;4275;-67
2023/03/17 07:29:21;;;;;;;;;;;;;;;20.78;39.76;100976.78;4957934;28;4208;-69
2023/03/17 07:31:48;;;;;;;;;;;;;;;20.80;40.07;100973.22;4959191;28;4153;-68
2023/03/17 07:34:15;;;;;;;;;;;;;;;20.79;39.28;100968.88;4959287;28;4131;-64
2023/03/17 07:36:41;;;;;;;;;;;;;;;20.82;39.14;100962.59;4959673;28;5097;-67
2023/03/17 07:39:14;;;;;;;;;;;;;;;20.86;39.47;100977.13;4951451;28;5425;-71
2023/03/17 07:41:41;;;;;;;;;;;;;;;21.18;40.23;100982.16;4943849;28;4135;-73
2023/03/17 07:44:10;;;;;;;;;;;;;;;21.32;39.32;100982.78;4934702;28;4085;-72
2023/03/17 07:46:37;;;;;;;;;;;;;;;21.37;39.35;100983.72;4956711;28;4196;-73
2023/03/17 07:49:03;;;;;;;;;;;;;;;21.42;38.84;100982.53;4956067;28;4114;-72
2023/03/17 07:51:30;;;;;;;;;;;;;;;21.43;38.63;100984.00;4955119;28;4318;-73
2023/03/17 07:54:02;;;;;;;;;;;;;;;21.45;38.69;100981.97;4956768;28;4211;-73
2023/03/17 07:56:29;;;;;;;;;;;;;;;21.26;38.88;100986.16;4949284;28;4264;-74
2023/03/17 07:58:57;;;;;;;;;;;;;;;21.24;39.16;100983.19;4948111;28;3995;-75
2023/03/17 08:01:24;;;;;;;;;;;;;;;21.26;38.90;100983.28;4948502;28;4122;-75
2023/03/17 08:03:51;;;;;;;;;;;;;;;21.26;38.96;101000.56;4950736;28;3915;-75
2023/03/17 08:06:18;;;;;;;;;;;;;;;21.19;38.33;100989.38;4955127;28;4231;-67
2023/03/17 08:08:44;;;;;;;;;;;;;;;20.98;38.52;100982.75;4954742;28;4292;-67
2023/03/17 08:11:11;;;;;;;;;;;;;;;21.16;39.07;100979.91;4951014;28;4578;-63
2023/03/17 08:13:37;;;;;;;;;;;;;;;21.21;38.76;100978.72;4953212;28;4158;-66
2023/03/17 08:16:04;;;;;;;;;;;;;;;21.20;38.04;100971.47;4945576;28;4340;-67
2023/03/17 08:18:30;;;;;;;;;;;;;;;21.17;37.82;100966.28;4944508;28;4212;-66
2023/03/17 08:20:57;;;;;;;;;;;;;;;21.14;37.82;100959.66;4944934;28;4190;-64
2023/03/17 08:23:24;;;;;;;;;;;;;;;21.14;37.53;100959.66;4944893;28;4011;-66
2023/03/17 08:25:55;;;;;;;;;;;;;;;21.12;37.31;100945.22;4945971;28;6250;-64
2023/03/17 08:28:22;;;;;;;;;;;;;;;21.13;37.69;100947.41;4944416;28;4198;-70
2023/03/17 08:30:49;;;;;;;;;;;;;;;21.18;37.07;100954.09;4946322;28;4147;-66
2023/03/17 08:33:16;;;;;;;;;;;;;;;21.20;37.51;100957.06;4945715;28;4188;-66
2023/03/17 08:35:42;;;;;;;;;;;;;;;21.20;37.42;100951.31;4943438;28;4168;-70
2023/03/17 08:38:08;;;;;;;;;;;;;;;21.15;37.38;100943.91;4945207;28;4182;-70
2023/03/17 08:40:35;;;;;;;;;;;;;;;21.17;37.16;100941.09;4945012;28;4569;-69
2023/03/17 08:43:01;;;;;;;;;;;;;;;21.20;37.24;100936.91;4944151;28;5220;-66
2023/03/17 08:45:28;;;;;;;;;;;;;;;21.16;37.22;100928.09;4944577;28;4159;-64
2023/03/17 08:47:55;;;;;;;;;;;;;;;21.19;37.11;100923.16;4944637;28;4102;-66
2023/03/17 08:50:21;;;;;;;;;;;;;;;21.11;37.55;100920.66;4945108;28;4194;-70
2023/03/17 08:52:48;;;;;;;;;;;;;;;21.03;37.36;100915.31;4945468;28;4097;-73
2023/03/17 08:55:15;;;;;;;;;;;;;;;21.00;37.75;100913.72;4945579;28;5296;-72
2023/03/17 08:57:43;;;;;;;;;;;;;;;20.97;37.56;100922.94;4942955;28;4025;-66
2023/03/17 09:00:10;;;;;;;;;;;;;;;21.00;37.91;100915.84;4943433;28;4136;-66
2023/03/17 09:02:37;;;;;;;;;;;;;;;21.08;37.90;100916.22;4945827;28;5217;-65
2023/03/17 09:05:04;;;;;;;;;;;;;;;21.31;37.33;100918.69;4944819;28;4189;-68
2023/03/17 09:07:31;;;;;;;;;;;;;;;21.42;37.07;100907.66;4944932;28;5494;-67
2023/03/17 09:09:58;;;;;;;;;;;;;;;21.47;36.74;100917.94;4944796;28;4167;-67
2023/03/17 09:12:25;;;;;;;;;;;;;;;21.44;36.65;100905.59;4944939;28;4200;-68
2023/03/17 09:14:52;;;;;;;;;;;;;;;21.44;36.71;100917.09;4947896;28;3978;-70
2023/03/17 09:17:18;;;;;;;;;;;;;;;21.46;36.68;100908.56;4953461;28;4040;-69
2023/03/17 09:19:44;;;;;;;;;;;;;;;21.46;36.69;100920.06;4950713;28;4275;-68
2023/03/17 09:22:12;;;;;;;;;;;;;;;21.47;36.64;100909.28;4953013;28;4170;-71
2023/03/17 09:24:38;;;;;;;;;;;;;;;21.28;36.92;100904.84;4954279;28;4126;-68
2023/03/17 09:27:05;;;;;;;;;;;;;;;21.16;37.29;100899.28;4949007;28;5416;-73
2023/03/17 09:29:32;;;;;;;;;;;;;;;21.16;36.98;100899.28;4951206;28;4355;-70
2023/03/17 09:31:58;;;;;;;;;;;;;;;21.18;36.94;100910.91;4949485;28;4096;-71
2023/03/17 09:34:25;;;;;;;;;;;;;;;21.16;36.80;100901.44;4948157;28;4215;-70
2023/03/17 09:36:54;;;;;;;;;;;;;;;21.14;37.29;100896.31;4948812;28;4147;-68
2023/03/17 09:39:21;;;;;;;;;;;;;;;21.13;36.99;100909.97;4951859;28;5275;-70
2023/03/17 09:41:57;;;;;;;;;;;;;;;21.16;37.13;100904.31;4952915;28;5329;-71
2023/03/17 09:44:29;;;;;;;;;;;;;;;21.45;37.08;100894.81;4949923;28;4194;-66
2023/03/17 09:47:04;;;;;;;;;;;;;;;21.51;36.60;100907.31;4932133;28;5363;-65
2023/03/17 09:49:37;;;;;;;;;;;;;;;21.58;36.75;100893.91;4920202;28;4391;-63
2023/03/17 09:52:03;;;;;;;;;;;;;;;21.58;36.32;100901.81;4921704;28;4152;-62
2023/03/17 09:54:30;;;;;;;;;;;;;;;21.58;36.27;100888.16;4948219;28;5206;-64
2023/03/17 09:56:57;;;;;;;;;;;;;;;21.62;36.24;100885.41;4947619;28;5311;-62
2023/03/17 09:59:34;;;;;;;;;;;;;;;21.59;36.21;100897.53;4950280;28;4200;-66
2023/03/17 10:02:01;;;;;;;;;;;;;;;21.59;35.97;100894.66;4933468;28;4120;-65
2023/03/17 10:04:27;;;;;;;;;;;;;;;21.53;36.12;100900.88;4939950;28;4990;-70
2023/03/17 10:06:56;;;;;;;;;;;;;;;21.54;35.84;100887.97;4947813;28;4616;-64
2023/03/17 10:09:25;;;;;;;;;;;;;;;21.52;36.03;100893.66;4943352;28;4393;-67
2023/03/17 10:12:09;;;;;;;;;;;;;;;21.10;35.72;100890.41;4944994;28;4179;-65
2023/03/17 10:14:37;;;;;;;;;;;;;;;20.91;36.18;100897.47;4942807;28;4203;-68
2023/03/17 10:17:15;;;;;;;;;;;;;;;20.91;35.78;100894.59;4937671;28;5232;-67
2023/03/17 10:19:41;;;;;;;;;;;;;;;20.89;35.94;100889.50;4923759;28;4204;-67
2023/03/17 10:22:25;;;;;;;;;;;;;;;20.85;35.86;100883.56;4934987;28;5338;-67
2023/03/17 10:24:52;;;;;;;;;;;;;;;20.82;35.87;100890.63;4943041;28;4457;-67
2023/03/17 10:27:18;;;;;;;;;;;;;;;20.79;35.85;100891.91;4928840;29;4142;-67
2023/03/17 10:29:45;;;;;;;;;;;;;;;20.78;35.72;100876.06;4937569;28;4533;-67
2023/03/17 10:32:13;;;;;;;;;;;;;;;20.77;35.88;100888.94;4940857;28;4071;-67
2023/03/17 10:34:40;;;;;;;;;;;;;;;20.76;35.49;100887.47;4941650;28;4774;-69
2023/03/17 10:37:08;;;;;;;;;;;;;;;20.75;35.41;100873.72;4939078;28;4369;-64
2023/03/17 10:39:43;;;;;;;;;;;;;;;20.74;35.22;100867.22;4933294;28;4392;-68
2023/03/17 10:42:10;;;;;;;;;;;;;;;20.84;35.59;100861.91;4938476;28;5462;-67
2023/03/17 10:44:38;;;;;;;;;;;;;;;21.00;35.53;100858.28;4938321;28;4188;-68
2023/03/17 10:47:04;;;;;;;;;;;;;;;21.13;35.47;100860.28;4927252;29;4170;-65
2023/03/17 10:49:34;;;;;;;;;;;;;;;21.15;35.41;100869.03;4941341;28;4296;-65
2023/03/17 10:52:01;;;;;;;;;;;;;;;21.19;35.67;100868.44;4942529;28;5018;-67
2023/03/17 10:54:28;;;;;;;;;;;;;;;21.20;35.36;100869.94;4941075;28;5310;-67
2023/03/17 10:56:57;;;;;;;;;;;;;;;21.17;35.79;100866.25;4919362;28;5206;-67
2023/03/17 10:59:28;;;;;;;;;;;;;;;21.20;35.53;100861.31;4933367;28;5413;-65
2023/03/17 11:01:59;;;;;;;;;;;;;;;21.18;35.43;100873.47;4942315;28;4110;-65
2023/03/17 11:04:28;;;;;;;;;;;;;;;21.15;35.28;100851.75;4942647;28;4185;-65
2023/03/17 11:06:56;;;;;;;;;;;;;;;21.22;35.49;100850.59;4942276;28;4147;-66
2023/03/17 11:09:22;;;;;;;;;;;;;;;21.17;35.46;100854.72;4939019;28;4152;-66
2023/03/17 11:12:02;;;;;;;;;;;;;;;21.22;35.53;100855.63;4937478;28;4227;-68
2023/03/17 11:14:29;;;;;;;;;;;;;;;21.19;35.13;100846.16;4937372;28;5275;-68
2023/03/17 11:16:56;;;;;;;;;;;;;;;21.21;35.44;100837.63;4939779;28;4034;-67
2023/03/17 11:19:27;;;;;;;;;;;;;;;21.19;35.33;100840.41;4939118;28;4535;-62
2023/03/17 11:22:10;;;;;;;;;;;;;;;21.24;35.33;100826.94;4926221;28;4134;-64
2023/03/17 11:24:40;;;;;;;;;;;;;;;21.21;35.17;100836.84;4918211;28;4079;-64
2023/03/17 11:27:11;;;;;;;;;;;;;;;21.13;35.09;100832.25;4921460;29;4246;-65
2023/03/17 11:29:43;;;;;;;;;;;;;;;21.22;35.66;100832.59;4917125;28;4172;-69
2023/03/17 11:32:29;;;;;;;;;;;;;;;21.18;35.25;100833.16;4929618;29;5470;-68
2023/03/17 11:35:14;;;;;;;;;;;;;;;21.19;35.54;100828.91;4940713;28;4154;-69
2023/03/17 11:37:59;;;;;;;;;;;;;;;21.09;35.72;100837.09;4936587;28;4306;-73
2023/03/17 11:40:31;;;;;;;;;;;;;;;21.04;36.12;100818.16;4939951;28;4255;-71
2023/03/17 11:43:15;;;;;;;;;;;;;;;21.01;35.69;100831.00;4928362;29;4795;-72
2023/03/17 11:45:53;;;;;;;;;;;;;;;20.99;36.09;100823.00;4917665;28;4842;-70
2023/03/17 11:48:22;;;;;;;;;;;;;;;20.96;35.83;100824.31;4934546;28;4206;-72
2023/03/17 11:50:55;;;;;;;;;;;;;;;20.97;35.82;100820.03;4922333;29;4140;-71
2023/03/17 11:53:26;;;;;;;;;;;;;;;20.96;35.73;100815.69;4912299;29;4213;-68
2023/03/17 11:55:54;;;;;;;;;;;;;;;20.98;35.62;100809.25;4921666;29;4382;-72
2023/03/17 11:58:25;;;;;;;;;;;;;;;20.99;35.93;100810.75;4944036;28;4164;-73
2023/03/17 12:00:53;;;;;;;;;;;;;;;20.97;35.69;100813.53;4922693;29;4478;-73
2023/03/17 12:03:30;;;;;;;;;;;;;;;21.00;35.82;100806.47;4945096;28;4172;-71
2023/03/17 12:06:00;;;;;;;;;;;;;;;20.99;35.58;100799.22;4919685;29;4816;-68
2023/03/17 12:08:37;;;;;;;;;;;;;;;21.05;35.55;100796.59;4923528;29;4187;-67
2023/03/17 12:11:05;;;;;;;;;;;;;;;21.09;35.35;100796.78;4944589;28;4162;-67
2023/03/17 12:13:44;;;;;;;;;;;;;;;21.11;35.37;100796.88;4930984;29;5224;-67
2023/03/17 12:16:24;;;;;;;;;;;;;;;21.10;35.77;100790.38;4919528;28;4231;-67
2023/03/17 12:18:54;;;;;;;;;;;;;;;21.10;35.38;100781.00;4941880;28;4411;-69
2023/03/17 12:21:51;;;;;;;;;;;;;;;21.17;35.23;100797.13;4945460;28;4184;-68
2023/03/17 12:24:19;;;;;;;;;;;;;;;21.23;35.15;100800.25;4928716;28;5364;-65
2023/03/17 12:26:50;;;;;;;;;;;;;;;21.23;35.31;100793.75;4938600;28;4186;-65
2023/03/17 12:29:23;;;;;;;;;;;;;;;21.27;35.15;100788.91;4926700;28;4116;-65
2023/03/17 12:32:16;;;;;;;;;;;;;;;21.08;35.36;100786.66;4919150;28;4050;-68
2023/03/17 12:34:44;;;;;;;;;;;;;;;21.05;34.57;100782.97;4939762;28;4173;-68
2023/03/17 12:37:11;;;;;;;;;;;;;;;21.11;34.54;100773.81;4921176;29;4719;-66
2023/03/17 12:39:39;;;;;;;;;;;;;;;21.14;34.74;100763.88;4943287;28;4222;-66
2023/03/17 12:42:12;;;;;;;;;;;;;;;21.11;34.40;100762.31;4913299;29;4164;-63
2023/03/17 12:44:57;;;;;;;;;;;;;;;20.98;34.30;100751.69;4936749;28;4172;-63
2023/03/17 12:47:35;;;;;;;;;;;;;;;20.93;34.42;100762.28;4938482;28;4226;-66
2023/03/17 12:50:21;;;;;;;;;;;;;;;20.91;34.70;100760.06;4938993;28;4100;-66
2023/03/17 12:53:07;;;;;;;;;;;;;;;20.91;34.45;100757.19;4942445;28;4375;-67
2023/03/17 12:55:35;;;;;;;;;;;;;;;20.91;34.54;100760.06;4939343;28;4065;-67
2023/03/17 12:58:06;;;;;;;;;;;;;;;20.95;35.18;100767.38;4931608;28;4496;-64
2023/03/17 13:00:36;;;;;;;;;;;;;;;20.99;35.11;100764.69;4927436;28;3938;-65
2023/03/17 13:03:06;;;;;;;;;;;;;;;21.10;35.17;100763.72;4944258;28;5042;-65
2023/03/17 13:05:34;;;;;;;;;;;;;;;21.06;35.11;100757.78;4926702;28;4788;-69
2023/03/17 13:08:01;;;;;;;;;;;;;;;21.15;35.33;100761.75;4914698;29;4046;-70
2023/03/17 13:10:43;;;;;;;;;;;;;;;21.19;35.00;100754.03;4913978;28;5342;-67
2023/03/17 13:13:29;;;;;;;;;;;;;;;21.21;35.16;100757.00;4939965;28;4124;-68
2023/03/17 13:15:57;;;;;;;;;;;;;;;21.23;35.27;100745.53;4940454;28;4003;-65
2023/03/17 13:18:28;;;;;;;;;;;;;;;21.30;35.38;100741.53;4939825;28;4047;-66
2023/03/17 13:20:55;;;;;;;;;;;;;;;21.34;34.98;100741.66;4919569;29;4230;-66
2023/03/17 13:23:51;;;;;;;;;;;;;;;21.58;35.33;100746.97;4942616;28;4188;-62